Time;durP1;ratioP1;P1;durP2;ratioP2;P2;SDS_P1;SDS_P2;PMS_P1;PMS_P2;Temp;Humidity;BMP_temperature;BMP_pressure;BME280_temperature;BME280_humidity;BME280_pressure;Samples;Min_cycle;Max_cycle;Signal;HPM_P1;HPM_P2
2022/09/14 00:01:07;;;;;;;7.38;3.72;;;;;;;18.36;100.00;95520.53;5036538;28;20245;-72
2022/09/14 00:03:35;;;;;;;6.35;3.58;;;;;;;18.35;100.00;95510.09;5036001;28;20221;-72
2022/09/14 00:06:05;;;;;;;7.38;3.60;;;;;;;18.35;100.00;95505.59;5036695;28;20208;-72
2022/09/14 00:08:32;;;;;;;11.25;3.60;;;;;;;18.25;100.00;95506.47;5035761;28;20999;-72
2022/09/14 00:11:03;;;;;;;7.32;4.03;;;;;;;18.25;100.00;95507.25;5035759;28;20201;-72
2022/09/14 00:13:30;;;;;;;7.50;3.53;;;;;;;18.23;100.00;95489.88;5036301;28;20224;-72
2022/09/14 00:15:57;;;;;;;5.63;4.10;;;;;;;18.22;100.00;95475.75;5036130;28;20213;-72
2022/09/14 00:18:23;;;;;;;5.78;3.90;;;;;;;18.22;100.00;95478.41;5035853;28;20235;-72
2022/09/14 00:20:51;;;;;;;5.28;3.70;;;;;;;18.29;100.00;95472.94;5035696;28;20208;-72
2022/09/14 00:23:18;;;;;;;8.25;3.83;;;;;;;18.25;100.00;95477.94;5035519;28;20205;-72
2022/09/14 00:25:44;;;;;;;8.20;3.80;;;;;;;18.26;100.00;95486.75;5035652;28;20213;-72
2022/09/14 00:28:11;;;;;;;4.70;3.08;;;;;;;18.24;100.00;95489.66;5036351;28;20225;-72
2022/09/14 00:30:41;;;;;;;5.70;3.58;;;;;;;18.36;100.00;95493.06;5035912;28;20205;-72
2022/09/14 00:33:07;;;;;;;6.47;3.08;;;;;;;18.25;100.00;95482.47;5035866;28;21024;-72
2022/09/14 00:35:35;;;;;;;5.03;3.33;;;;;;;18.27;100.00;95472.38;5036179;28;20211;-72
2022/09/14 00:38:03;;;;;;;9.35;3.40;;;;;;;18.31;100.00;95466.28;5035870;28;20727;-72
2022/09/14 00:40:29;;;;;;;6.72;3.55;;;;;;;18.16;100.00;95449.22;5033218;28;20232;-72
2022/09/14 00:42:56;;;;;;;5.45;3.30;;;;;;;18.21;100.00;95452.00;5036766;28;20231;-72
2022/09/14 00:45:25;;;;;;;8.75;3.83;;;;;;;18.26;100.00;95458.22;5040250;28;20835;-72
2022/09/14 00:47:54;;;;;;;7.95;3.63;;;;;;;18.21;100.00;95450.13;5039120;28;20229;-72
2022/09/14 00:50:21;;;;;;;10.73;3.45;;;;;;;18.26;100.00;95454.75;5039988;28;20220;-72
2022/09/14 00:52:50;;;;;;;14.68;3.40;;;;;;;18.33;100.00;95459.66;5039070;28;20201;-72
2022/09/14 00:55:22;;;;;;;6.68;3.20;;;;;;;18.36;100.00;95448.50;5038633;28;20197;-72
2022/09/14 00:57:52;;;;;;;7.68;3.17;;;;;;;18.36;100.00;95440.50;5039886;28;20236;-72
2022/09/14 01:00:22;;;;;;;4.47;2.95;;;;;;;18.37;100.00;95444.78;5040534;28;20237;-72
2022/09/14 01:02:48;;;;;;;5.18;3.42;;;;;;;18.25;100.00;95445.13;5038807;28;20231;-72
2022/09/14 01:05:16;;;;;;;4.63;3.30;;;;;;;18.23;100.00;95432.03;5039724;28;20221;-72
2022/09/14 01:07:55;;;;;;;4.40;2.90;;;;;;;18.34;100.00;95426.63;5039022;28;20601;-72
2022/09/14 01:10:33;;;;;;;6.18;3.30;;;;;;;18.35;100.00;95435.41;5039377;28;20243;-72
2022/09/14 01:13:11;;;;;;;5.22;3.40;;;;;;;18.31;100.00;95420.16;5038662;28;20205;-72
2022/09/14 01:15:48;;;;;;;7.50;3.20;;;;;;;18.34;100.00;95425.78;5039476;28;21230;-72
2022/09/14 01:18:21;;;;;;;4.03;3.10;;;;;;;18.31;100.00;95422.81;5039665;28;20229;-72
2022/09/14 01:20:52;;;;;;;5.03;3.17;;;;;;;18.29;100.00;95424.91;5038884;28;20213;-72
2022/09/14 01:23:26;;;;;;;4.20;2.85;;;;;;;18.40;100.00;95430.16;5037821;28;20217;-72
2022/09/14 01:26:10;;;;;;;6.15;3.10;;;;;;;18.32;100.00;95424.41;5040086;28;20209;-72
2022/09/14 01:28:42;;;;;;;6.00;3.40;;;;;;;18.33;100.00;95422.31;5038981;28;20225;-72
2022/09/14 01:31:14;;;;;;;5.22;3.40;;;;;;;18.32;100.00;95419.09;5039149;28;20205;-72
2022/09/14 01:33:47;;;;;;;10.10;4.05;;;;;;;18.37;100.00;95418.13;5038099;28;20646;-72
2022/09/14 01:36:15;;;;;;;5.22;3.40;;;;;;;18.36;100.00;95410.38;5039628;28;20209;-72
2022/09/14 01:38:46;;;;;;;5.22;3.25;;;;;;;18.39;100.00;95410.69;5038662;28;20233;-72
2022/09/14 01:41:15;;;;;;;3.60;2.92;;;;;;;18.32;100.00;95405.75;5039531;28;20205;-72
2022/09/14 01:43:48;;;;;;;8.05;3.50;;;;;;;18.33;100.00;95401.00;5038299;28;20197;-72
2022/09/14 01:46:17;;;;;;;5.82;3.25;;;;;;;18.33;100.00;95394.03;5038813;28;20208;-72
2022/09/14 01:48:49;;;;;;;5.75;3.22;;;;;;;18.34;100.00;95391.13;5038332;28;20235;-72
2022/09/14 01:51:20;;;;;;;7.78;3.50;;;;;;;18.35;100.00;95382.91;5038725;28;20209;-72
2022/09/14 01:53:52;;;;;;;6.22;3.35;;;;;;;18.34;100.00;95375.09;5036629;28;20201;-72
2022/09/14 01:56:23;;;;;;;4.07;2.95;;;;;;;18.35;100.00;95382.91;5038813;28;20228;-72
2022/09/14 01:58:58;;;;;;;8.68;2.97;;;;;;;18.35;100.00;95374.88;5038258;28;20780;-72
2022/09/14 02:01:29;;;;;;;4.18;2.95;;;;;;;18.34;100.00;95369.78;5038343;28;20215;-72
2022/09/14 02:04:00;;;;;;;6.00;3.10;;;;;;;18.24;100.00;95379.50;5037643;28;20212;-72
2022/09/14 02:06:32;;;;;;;4.80;3.17;;;;;;;18.28;100.00;95357.44;5038529;28;20201;-72
2022/09/14 02:08:59;;;;;;;5.03;2.92;;;;;;;18.19;100.00;95366.09;5038481;28;20647;-72
2022/09/14 02:11:26;;;;;;;4.55;2.95;;;;;;;18.21;100.00;95370.13;5038189;28;20209;-72
2022/09/14 02:13:53;;;;;;;5.03;3.55;;;;;;;18.26;100.00;95377.41;5037911;28;20876;-72
2022/09/14 02:16:23;;;;;;;5.72;3.22;;;;;;;18.33;100.00;95370.84;5038286;28;20201;-72
2022/09/14 02:18:50;;;;;;;5.70;3.22;;;;;;;18.27;100.00;95373.69;5037774;28;20783;-72
2022/09/14 02:21:19;;;;;;;5.18;3.70;;;;;;;18.40;100.00;95382.94;5037887;28;20691;-72
2022/09/14 02:23:46;;;;;;;8.75;3.90;;;;;;;18.49;100.00;95378.78;5035214;28;20225;-72
2022/09/14 02:26:13;;;;;;;5.53;3.75;;;;;;;18.53;100.00;95379.13;5037605;28;20209;-72
2022/09/14 02:28:39;;;;;;;8.38;4.10;;;;;;;18.61;100.00;95384.03;5038545;28;20224;-72
2022/09/14 02:31:15;;;;;;;6.70;3.65;;;;;;;18.67;100.00;95370.53;5037467;28;20213;-72
2022/09/14 02:33:54;;;;;;;7.85;4.00;;;;;;;18.64;100.00;95360.34;5037472;28;20220;-72
2022/09/14 02:36:28;;;;;;;5.30;3.53;;;;;;;18.51;100.00;95376.72;5038331;28;20220;-72
2022/09/14 02:39:01;;;;;;;8.38;3.97;;;;;;;18.61;100.00;95387.53;5038321;28;20240;-72
2022/09/14 02:41:38;;;;;;;7.47;4.88;;;;;;;18.62;100.00;95389.16;5037548;28;20205;-72
2022/09/14 02:44:13;;;;;;;6.95;4.43;;;;;;;18.64;100.00;95389.69;5037536;28;20208;-72
2022/09/14 02:46:48;;;;;;;5.60;4.57;;;;;;;18.58;100.00;95374.69;5037762;28;20200;-72
2022/09/14 02:49:21;;;;;;;9.23;4.68;;;;;;;18.51;100.00;95373.25;5037633;28;20219;-72
2022/09/14 02:51:57;;;;;;;8.40;4.60;;;;;;;18.41;100.00;95376.56;5037636;28;20213;-72
2022/09/14 02:54:30;;;;;;;8.63;4.32;;;;;;;18.47;100.00;95377.47;5037045;28;20216;-72
2022/09/14 02:57:00;;;;;;;8.38;4.78;;;;;;;18.47;100.00;95374.78;5037421;28;20677;-72
2022/09/14 02:59:26;;;;;;;7.32;4.30;;;;;;;18.36;100.00;95355.13;5037543;28;20209;-72
2022/09/14 03:01:54;;;;;;;9.02;4.43;;;;;;;18.40;100.00;95358.94;5037883;28;20205;-72
2022/09/14 03:04:21;;;;;;;7.75;5.03;;;;;;;18.38;100.00;95362.94;5036354;28;20201;-72
2022/09/14 03:06:47;;;;;;;8.68;4.63;;;;;;;18.39;100.00;95362.69;5037555;28;20201;-72
2022/09/14 03:09:14;;;;;;;6.90;5.05;;;;;;;18.54;100.00;95378.88;5037465;28;21081;-72
2022/09/14 03:11:40;;;;;;;10.60;5.38;;;;;;;18.45;100.00;95387.56;5036496;28;20205;-72
2022/09/14 03:14:07;;;;;;;8.77;5.05;;;;;;;18.58;100.00;95411.22;5036368;28;21166;-72
2022/09/14 03:16:33;;;;;;;8.57;4.93;;;;;;;18.45;100.00;95382.22;5037117;28;20201;-70
2022/09/14 03:19:01;;;;;;;7.53;5.00;;;;;;;18.40;100.00;95404.28;5036560;28;20225;-71
2022/09/14 03:21:27;;;;;;;7.72;4.90;;;;;;;18.32;100.00;95411.06;5036672;28;20216;-72
2022/09/14 03:23:55;;;;;;;6.60;4.80;;;;;;;18.16;100.00;95417.22;5036384;28;20235;-73
2022/09/14 03:26:24;;;;;;;7.85;5.35;;;;;;;18.27;100.00;95395.03;5036865;28;20208;-72
2022/09/14 03:28:51;;;;;;;8.15;5.22;;;;;;;18.17;100.00;95385.00;5036618;28;20232;-72
2022/09/14 03:31:17;;;;;;;8.63;5.55;;;;;;;18.20;100.00;95384.53;5037098;28;20721;-72
2022/09/14 03:33:44;;;;;;;9.27;5.57;;;;;;;18.09;100.00;95393.38;5035397;28;20209;-71
2022/09/14 03:36:15;;;;;;;10.98;6.13;;;;;;;18.19;100.00;95379.41;5036785;28;20209;-71
2022/09/14 03:38:43;;;;;;;12.73;6.90;;;;;;;18.21;100.00;95382.66;5036528;28;20229;-72
2022/09/14 03:41:10;;;;;;;13.55;8.10;;;;;;;18.15;100.00;95383.59;5037160;28;20661;-72
2022/09/14 03:43:37;;;;;;;11.10;7.03;;;;;;;18.09;100.00;95369.38;5035270;28;20236;-72
2022/09/14 03:46:07;;;;;;;14.35;8.05;;;;;;;18.11;100.00;95363.81;5037260;28;21142;-72
2022/09/14 03:48:34;;;;;;;16.98;8.63;;;;;;;18.10;100.00;95370.19;5035793;28;20732;-72
2022/09/14 03:51:01;;;;;;;13.43;8.15;;;;;;;18.10;100.00;95379.00;5037000;28;20205;-72
2022/09/14 03:53:29;;;;;;;16.65;8.63;;;;;;;18.15;100.00;95380.94;5035514;28;20224;-73
2022/09/14 03:55:55;;;;;;;11.93;8.13;;;;;;;18.10;100.00;95368.34;5037143;28;20662;-72
2022/09/14 03:58:22;;;;;;;11.65;7.25;;;;;;;18.10;100.00;95367.50;5036141;28;20221;-72
2022/09/14 04:00:49;;;;;;;14.45;8.32;;;;;;;18.10;100.00;95357.69;5036857;28;20266;-73
2022/09/14 04:03:16;;;;;;;14.50;7.60;;;;;;;18.00;100.00;95349.50;5035650;28;20221;-72
2022/09/14 04:05:44;;;;;;;14.90;8.32;;;;;;;18.03;100.00;95345.56;5036366;28;20205;-73
2022/09/14 04:08:10;;;;;;;14.52;7.88;;;;;;;18.01;100.00;95336.97;5036009;28;20225;-72
2022/09/14 04:10:40;;;;;;;14.82;8.48;;;;;;;18.09;100.00;95334.72;5036931;28;20209;-72
2022/09/14 04:13:07;;;;;;;21.40;8.32;;;;;;;17.93;100.00;95334.75;5035535;28;20719;-72
2022/09/14 04:15:33;;;;;;;17.65;8.57;;;;;;;17.97;100.00;95331.34;5036164;28;20215;-71
2022/09/14 04:17:59;;;;;;;17.35;7.78;;;;;;;18.01;100.00;95350.31;5035936;28;20243;-72
2022/09/14 04:20:26;;;;;;;17.27;8.15;;;;;;;17.93;100.00;95340.84;5036113;28;20208;-72
2022/09/14 04:22:52;;;;;;;21.27;8.57;;;;;;;17.98;100.00;95342.81;5034953;28;20229;-71
2022/09/14 04:25:19;;;;;;;17.83;10.68;;;;;;;17.98;100.00;95342.81;5036559;28;20213;-72
2022/09/14 04:27:47;;;;;;;22.08;12.90;;;;;;;18.07;100.00;95336.03;5036318;28;20225;-72
2022/09/14 04:30:13;;;;;;;18.65;10.05;;;;;;;18.00;100.00;95340.72;5035093;28;20205;-72
2022/09/14 04:32:40;;;;;;;24.42;10.82;;;;;;;17.99;100.00;95350.56;5035387;28;20205;-71
2022/09/14 04:35:07;;;;;;;16.17;9.95;;;;;;;18.03;100.00;95357.03;5036225;28;20205;-72
2022/09/14 04:37:33;;;;;;;17.88;9.68;;;;;;;17.97;100.00;95355.34;5036598;28;20229;-72
2022/09/14 04:40:00;;;;;;;17.55;8.93;;;;;;;18.05;100.00;95364.78;5036007;28;21042;-72
2022/09/14 04:42:26;;;;;;;12.57;8.88;;;;;;;18.03;100.00;95356.22;5035505;28;20205;-72
2022/09/14 04:44:54;;;;;;;18.23;8.73;;;;;;;18.14;100.00;95347.31;5036363;28;20204;-72
2022/09/14 04:47:21;;;;;;;19.35;8.80;;;;;;;18.08;100.00;95348.31;5036200;28;20228;-71
2022/09/14 04:49:47;;;;;;;18.33;9.88;;;;;;;18.04;100.00;95347.97;5035129;28;20580;-73
2022/09/14 04:52:14;;;;;;;19.40;9.13;;;;;;;18.11;100.00;95342.47;5036537;28;20201;-73
2022/09/14 04:54:40;;;;;;;15.27;9.48;;;;;;;18.12;100.00;95333.44;5034942;28;20208;-73
2022/09/14 04:57:07;;;;;;;13.63;8.48;;;;;;;18.11;100.00;95345.94;5035829;28;20202;-73
2022/09/14 04:59:33;;;;;;;17.17;9.35;;;;;;;18.08;100.00;95354.44;5035627;28;20208;-73
2022/09/14 05:02:01;;;;;;;14.25;8.93;;;;;;;18.17;100.00;95349.50;5035539;28;20213;-74
2022/09/14 05:04:27;;;;;;;14.40;9.18;;;;;;;18.12;100.00;95346.75;5034040;28;20232;-73
2022/09/14 05:06:55;;;;;;;18.77;8.95;;;;;;;18.09;100.00;95357.94;5036897;28;20205;-74
2022/09/14 05:09:21;;;;;;;19.33;9.45;;;;;;;18.14;100.00;95347.31;5035830;28;20579;-73
2022/09/14 05:11:50;;;;;;;17.77;10.02;;;;;;;18.13;100.00;95346.50;5035281;28;20217;-74
2022/09/14 05:14:17;;;;;;;21.73;10.77;;;;;;;18.16;100.00;95346.00;5034964;28;21120;-74
2022/09/14 05:16:44;;;;;;;21.30;9.82;;;;;;;18.18;100.00;95345.81;5036085;28;20235;-74
2022/09/14 05:19:14;;;;;;;22.67;11.18;;;;;;;18.29;100.00;95339.56;5034700;28;20235;-73
2022/09/14 05:21:41;;;;;;;19.02;9.65;;;;;;;18.24;100.00;95331.50;5036301;28;20206;-73
2022/09/14 05:24:13;;;;;;;15.07;9.75;;;;;;;18.28;100.00;95340.59;5035066;28;20225;-75
2022/09/14 05:26:40;;;;;;;17.67;9.60;;;;;;;18.18;100.00;95343.94;5034896;28;20300;-72
2022/09/14 05:29:06;;;;;;;16.52;10.02;;;;;;;18.25;100.00;95349.13;5036766;28;20232;-72
2022/09/14 05:31:33;;;;;;;20.25;11.40;;;;;;;18.29;100.00;95344.91;5039100;28;20212;-73
2022/09/14 05:34:00;;;;;;;23.15;10.63;;;;;;;18.33;100.00;95346.03;5038444;28;20292;-72
2022/09/14 05:36:28;;;;;;;66.00;39.45;;;;;;;18.42;100.00;95358.72;5039151;28;20205;-73
2022/09/14 05:38:56;;;;;;;17.52;9.43;;;;;;;18.42;100.00;95362.16;5039200;28;20236;-73
2022/09/14 05:41:23;;;;;;;18.58;9.77;;;;;;;18.48;100.00;95371.88;5032221;28;21111;-71
2022/09/14 05:43:49;;;;;;;13.30;9.00;;;;;;;18.48;100.00;95371.03;5037413;28;20449;-74
2022/09/14 05:46:18;;;;;;;21.00;9.23;;;;;;;18.47;100.00;95364.91;5039057;28;20209;-74
2022/09/14 05:48:46;;;;;;;13.90;8.38;;;;;;;18.47;100.00;95359.56;5038144;28;20236;-74
2022/09/14 05:51:15;;;;;;;13.35;8.75;;;;;;;18.54;100.00;95359.41;5037565;28;20295;-74
2022/09/14 05:53:47;;;;;;;13.40;7.93;;;;;;;18.55;100.00;95351.13;5033484;28;20208;-74
2022/09/14 05:56:13;;;;;;;17.77;8.38;;;;;;;18.47;100.00;95348.09;5037066;28;20212;-73
2022/09/14 05:58:42;;;;;;;18.77;8.52;;;;;;;18.43;100.00;95333.63;5038383;28;20240;-73
2022/09/14 06:01:10;;;;;;;21.98;9.02;;;;;;;18.50;100.00;95337.72;5039127;28;20220;-72
2022/09/14 06:03:36;;;;;;;19.95;9.27;;;;;;;18.49;100.00;95332.66;5037626;28;20229;-73
2022/09/14 06:06:05;;;;;;;13.43;8.65;;;;;;;18.46;100.00;95309.94;5038643;28;20212;-73
2022/09/14 06:08:32;;;;;;;13.60;8.15;;;;;;;18.50;100.00;95289.72;5038426;28;20597;-73
2022/09/14 06:11:04;;;;;;;13.93;7.80;;;;;;;18.66;100.00;95286.19;5038513;28;20216;-72
2022/09/14 06:13:31;;;;;;;13.63;7.68;;;;;;;18.59;100.00;95288.22;5035598;28;20202;-73
2022/09/14 06:16:01;;;;;;;14.20;7.80;;;;;;;18.71;100.00;95296.91;5038436;28;20205;-72
2022/09/14 06:18:30;;;;;;;9.55;6.32;;;;;;;18.67;100.00;95306.47;5038942;28;21162;-73
2022/09/14 06:20:56;;;;;;;10.70;6.22;;;;;;;18.82;100.00;95298.63;5038659;28;20303;-73
2022/09/14 06:23:23;;;;;;;12.57;6.35;;;;;;;18.84;100.00;95301.03;5036565;28;20220;-74
2022/09/14 06:25:52;;;;;;;9.40;5.05;;;;;;;19.03;100.00;95311.16;5038166;28;20213;-73
2022/09/14 06:28:20;;;;;;;9.68;4.90;;;;;;;19.17;100.00;95312.38;5037732;28;20229;-73
2022/09/14 06:30:47;;;;;;;7.60;4.32;;;;;;;19.29;100.00;95318.41;5037441;28;20201;-74
2022/09/14 06:33:13;;;;;;;8.25;4.32;;;;;;;19.33;100.00;95319.50;5037018;28;20846;-74
2022/09/14 06:35:40;;;;;;;5.65;4.10;;;;;;;19.39;100.00;95310.50;5037830;28;20224;-74
2022/09/14 06:38:07;;;;;;;7.72;3.53;;;;;;;19.50;100.00;95322.88;5037581;28;20229;-73
2022/09/14 06:40:34;;;;;;;5.30;3.53;;;;;;;19.65;100.00;95321.97;5036645;28;20205;-73
2022/09/14 06:43:01;;;;;;;8.00;3.08;;;;;;;19.68;100.00;95324.13;5037143;28;20213;-72
2022/09/14 06:45:29;;;;;;;9.50;3.25;;;;;;;19.95;100.00;95330.25;5038130;28;20213;-73
2022/09/14 06:47:56;;;;;;;6.70;3.40;;;;;;;19.82;100.00;95325.31;5037535;28;20249;-73
2022/09/14 06:50:23;;;;;;;7.03;3.10;;;;;;;20.01;100.00;95329.25;5037319;28;20209;-73
2022/09/14 06:52:50;;;;;;;5.57;2.95;;;;;;;19.99;100.00;95334.03;5035687;28;21185;-73
2022/09/14 06:55:16;;;;;;;5.60;3.45;;;;;;;20.16;100.00;95332.00;5038193;28;20208;-73
2022/09/14 06:57:43;;;;;;;9.27;3.55;;;;;;;20.18;100.00;95330.69;5037513;28;20564;-73
2022/09/14 07:00:10;;;;;;;7.07;3.50;;;;;;;20.28;100.00;95335.31;5037030;28;20205;-72
2022/09/14 07:02:38;;;;;;;7.60;3.50;;;;;;;20.38;100.00;95333.50;5037013;28;20261;-73
2022/09/14 07:05:05;;;;;;;5.72;3.25;;;;;;;20.44;100.00;95331.66;5037616;28;20240;-74
2022/09/14 07:07:31;;;;;;;4.05;2.65;;;;;;;20.50;100.00;95335.97;5036809;28;20599;-73
2022/09/14 07:09:58;;;;;;;6.07;2.88;;;;;;;20.56;100.00;95337.63;5037602;28;20204;-73
2022/09/14 07:12:24;;;;;;;5.18;2.75;;;;;;;20.64;100.00;95326.41;5037475;28;20209;-75
2022/09/14 07:14:51;;;;;;;4.38;2.60;;;;;;;20.62;100.00;95333.88;5037305;28;21238;-76
2022/09/14 07:17:19;;;;;;;6.65;2.70;;;;;;;20.70;100.00;95331.53;5038058;28;20236;-73
2022/09/14 07:19:47;;;;;;;4.93;2.35;;;;;;;20.81;100.00;95332.41;5032266;28;20205;-74
2022/09/14 07:22:13;;;;;;;7.32;2.90;;;;;;;20.80;100.00;95334.28;5035023;28;20215;-73
2022/09/14 07:24:40;;;;;;;3.97;2.50;;;;;;;20.80;100.00;95346.84;5034328;28;20238;-74
2022/09/14 07:27:06;;;;;;;5.07;2.60;;;;;;;20.97;100.00;95343.72;5035253;28;20791;-73
2022/09/14 07:29:33;;;;;;;4.85;2.22;;;;;;;20.85;100.00;95339.66;5034878;28;20208;-74
2022/09/14 07:32:00;;;;;;;7.88;2.45;;;;;;;20.87;100.00;95358.94;5034454;28;20205;-73
2022/09/14 07:34:26;;;;;;;4.28;2.58;;;;;;;20.97;100.00;95346.38;5033088;28;20212;-73
2022/09/14 07:36:54;;;;;;;5.20;2.60;;;;;;;21.11;100.00;95354.75;5034457;28;20205;-74
2022/09/14 07:39:21;;;;;;;5.00;2.65;;;;;;;21.17;100.00;95359.88;5035496;28;20209;-73
2022/09/14 07:41:47;;;;;;;6.70;2.50;;;;;;;21.21;100.00;95362.84;5035424;28;20209;-74
2022/09/14 07:44:16;;;;;;;6.80;2.90;;;;;;;21.34;100.00;95363.13;5034800;28;20217;-73
2022/09/14 07:46:44;;;;;;;4.13;2.45;;;;;;;21.37;100.00;95359.91;5032915;28;20293;-74
2022/09/14 07:49:12;;;;;;;5.57;2.72;;;;;;;21.42;100.00;95371.47;5033721;28;20244;-74
2022/09/14 07:51:38;;;;;;;4.00;2.50;;;;;;;21.51;100.00;95367.25;5034152;28;20959;-73
2022/09/14 07:54:08;;;;;;;5.30;2.90;;;;;;;21.57;100.00;95376.09;5033661;28;20205;-73
2022/09/14 07:56:35;;;;;;;5.85;3.03;;;;;;;21.54;100.00;95358.66;5034642;28;20877;-74
2022/09/14 07:59:03;;;;;;;4.95;2.90;;;;;;;21.68;100.00;95367.00;5034996;28;20224;-74
2022/09/14 08:01:30;;;;;;;4.78;2.63;;;;;;;21.82;100.00;95363.53;5033814;28;20205;-74
2022/09/14 08:04:01;;;;;;;5.07;2.40;;;;;;;21.90;100.00;95370.25;5033308;28;20741;-73
2022/09/14 08:06:28;;;;;;;3.63;2.42;;;;;;;22.05;100.00;95363.81;5033843;28;20209;-74
2022/09/14 08:08:56;;;;;;;7.40;2.85;;;;;;;22.08;100.00;95371.34;5034110;28;20625;-75
2022/09/14 08:11:26;;;;;;;6.63;2.63;;;;;;;21.98;100.00;95364.34;5033476;28;20201;-74
2022/09/14 08:13:54;;;;;;;5.90;2.83;;;;;;;21.96;100.00;95363.78;5033245;28;20197;-73
2022/09/14 08:16:21;;;;;;;7.20;2.95;;;;;;;22.04;100.00;95360.59;5034954;28;20216;-74
2022/09/14 08:18:52;;;;;;;4.50;2.65;;;;;;;21.95;100.00;95364.88;5034374;28;20323;-74
2022/09/14 08:21:19;;;;;;;4.22;2.47;;;;;;;21.93;100.00;95365.16;5031134;28;20220;-74
2022/09/14 08:23:45;;;;;;;9.13;4.45;;;;;;;21.99;100.00;95361.38;5033343;28;20225;-71
2022/09/14 08:26:14;;;;;;;5.85;2.85;;;;;;;22.08;100.00;95368.66;5034505;28;20211;-74
2022/09/14 08:28:43;;;;;;;4.68;2.20;;;;;;;22.32;100.00;95369.72;5034941;28;20225;-73
2022/09/14 08:31:11;;;;;;;2.58;2.13;;;;;;;22.23;100.00;95373.19;5034994;28;20200;-74
2022/09/14 08:33:40;;;;;;;4.25;2.60;;;;;;;22.45;100.00;95382.59;5034277;28;20197;-75
2022/09/14 08:36:08;;;;;;;5.82;2.35;;;;;;;22.56;100.00;95381.53;5034796;28;20204;-74
2022/09/14 08:38:35;;;;;;;3.78;2.50;;;;;;;22.56;100.00;95384.19;5034922;28;20275;-73
2022/09/14 08:41:11;;;;;;;6.25;2.08;;;;;;;22.78;100.00;95388.19;5034505;28;20673;-74
2022/09/14 08:43:39;;;;;;;4.88;2.47;;;;;;;22.75;100.00;95380.66;5033919;28;21015;-74
2022/09/14 08:46:15;;;;;;;5.57;3.00;;;;;;;23.02;100.00;95375.78;5034554;28;20212;-73
2022/09/14 08:48:46;;;;;;;4.82;1.55;;;;;;;22.89;100.00;95386.28;5034735;28;20229;-73
2022/09/14 08:51:12;;;;;;;3.60;1.58;;;;;;;22.92;100.00;95391.91;5034574;28;20201;-74
2022/09/14 08:53:41;;;;;;;6.72;2.30;;;;;;;23.02;100.00;95405.34;5033937;28;20208;-74
2022/09/14 08:56:13;;;;;;;7.65;2.85;;;;;;;23.01;100.00;95411.78;5034157;28;20298;-74
2022/09/14 08:58:52;;;;;;;3.38;1.48;;;;;;;23.21;99.66;95413.63;5035147;28;20225;-74
2022/09/14 09:01:32;;;;;;;6.35;2.53;;;;;;;23.53;100.00;95422.91;5035373;28;20840;-73
2022/09/14 09:04:19;;;;;;;4.60;2.50;;;;;;;23.69;98.10;95425.25;5036274;28;20224;-74
2022/09/14 09:06:52;;;;;;;6.20;2.60;;;;;;;23.66;95.14;95420.41;5038103;28;20205;-73
2022/09/14 09:09:24;;;;;;;6.10;2.53;;;;;;;23.78;96.26;95425.47;5038812;28;20744;-74
2022/09/14 09:11:53;;;;;;;3.70;2.45;;;;;;;23.75;94.47;95426.84;5037402;28;20205;-74
2022/09/14 09:14:24;;;;;;;5.75;2.10;;;;;;;23.98;96.06;95423.47;5037084;28;20215;-74
2022/09/14 09:16:55;;;;;;;4.47;2.20;;;;;;;24.10;93.89;95418.56;5034290;28;20208;-74
2022/09/14 09:19:26;;;;;;;6.18;2.50;;;;;;;24.09;94.67;95433.88;5037750;28;20227;-74
2022/09/14 09:21:53;;;;;;;2.90;1.63;;;;;;;24.06;93.36;95430.97;5037189;28;20295;-74
2022/09/14 09:24:27;;;;;;;8.23;2.25;;;;;;;24.28;90.91;95428.66;5037046;28;20608;-74
2022/09/14 09:26:53;;;;;;;4.28;2.30;;;;;;;24.13;91.51;95426.06;5037376;28;20213;-74
2022/09/14 09:29:20;;;;;;;6.55;2.20;;;;;;;24.19;91.58;95419.56;5037672;28;21026;-75
2022/09/14 09:31:51;;;;;;;3.47;2.20;;;;;;;24.39;92.17;95420.25;5037458;28;21110;-74
2022/09/14 09:34:25;;;;;;;5.43;2.40;;;;;;;24.36;90.33;95425.34;5036848;28;21023;-74
2022/09/14 09:36:52;;;;;;;8.82;2.10;;;;;;;24.31;91.08;95417.31;5037738;28;20209;-74
2022/09/14 09:39:19;;;;;;;7.70;2.78;;;;;;;24.36;90.43;95419.97;5037686;28;20208;-75
2022/09/14 09:41:49;;;;;;;4.90;2.50;;;;;;;24.49;90.47;95414.78;5037061;28;20201;-75
2022/09/14 09:44:16;;;;;;;5.57;2.33;;;;;;;24.24;90.59;95422.22;5036258;28;20229;-74
2022/09/14 09:46:47;;;;;;;3.63;1.92;;;;;;;24.29;89.52;95422.19;5038319;28;20216;-75
2022/09/14 09:49:22;;;;;;;3.00;2.10;;;;;;;24.28;90.70;95424.06;5038548;28;20239;-77
2022/09/14 09:51:50;;;;;;;2.90;2.03;;;;;;;24.32;91.65;95424.31;5037868;28;20201;-73
2022/09/14 09:54:28;;;;;;;3.78;2.13;;;;;;;24.26;90.25;95411.97;5037144;28;20204;-74
2022/09/14 09:56:57;;;;;;;2.55;1.98;;;;;;;24.18;90.16;95415.25;5038478;28;20562;-74
2022/09/14 09:59:31;;;;;;;6.65;2.28;;;;;;;24.22;89.90;95413.63;5037903;28;21014;-75
2022/09/14 10:02:21;;;;;;;4.28;2.05;;;;;;;24.55;89.05;95402.84;5038571;28;20212;-73
2022/09/14 10:05:01;;;;;;;4.50;2.10;;;;;;;24.81;86.87;95406.94;5040117;28;20236;-74
2022/09/14 10:07:30;;;;;;;5.63;2.50;;;;;;;24.77;85.49;95395.91;5038666;28;20225;-77
2022/09/14 10:09:59;;;;;;;8.30;3.22;;;;;;;25.03;86.53;95402.66;5038498;28;20216;-76
2022/09/14 10:12:26;;;;;;;7.85;2.83;;;;;;;25.10;86.88;95397.75;5038350;28;20209;-76
2022/09/14 10:15:06;;;;;;;4.68;2.60;;;;;;;24.98;86.15;95402.69;5038281;28;20872;-74
2022/09/14 10:17:33;;;;;;;3.83;2.25;;;;;;;25.03;85.92;95389.16;5039600;28;20216;-74
2022/09/14 10:20:03;;;;;;;5.95;2.60;;;;;;;25.04;88.24;95388.09;5039085;28;20201;-73
2022/09/14 10:22:30;;;;;;;5.55;2.30;;;;;;;25.03;86.15;95373.00;5034723;28;20305;-73
2022/09/14 10:24:59;;;;;;;2.58;1.98;;;;;;;25.21;85.51;95361.47;5035144;28;20256;-73
2022/09/14 10:27:41;;;;;;;5.47;2.00;;;;;;;25.32;82.60;95354.88;5036797;28;20225;-74
2022/09/14 10:30:16;;;;;;;4.18;2.67;;;;;;;25.43;84.04;95356.34;5036435;28;20213;-74
2022/09/14 10:32:46;;;;;;;3.88;1.77;;;;;;;25.42;81.87;95360.94;5035939;28;20204;-74
2022/09/14 10:35:16;;;;;;;5.75;2.20;;;;;;;25.53;82.27;95346.22;5036781;28;20209;-74
2022/09/14 10:38:04;;;;;;;2.20;1.92;;;;;;;25.77;82.63;95347.00;5036716;28;20221;-73
2022/09/14 10:40:35;;;;;;;7.97;2.40;;;;;;;25.47;83.33;95343.88;5036821;28;20282;-73
2022/09/14 10:43:15;;;;;;;3.17;2.10;;;;;;;25.54;82.19;95336.25;5036245;28;20211;-73
2022/09/14 10:45:49;;;;;;;6.85;2.00;;;;;;;25.67;83.15;95320.09;5036488;28;20792;-73
2022/09/14 10:48:50;;;;;;;5.85;1.90;;;;;;;25.81;80.97;95309.44;5036222;28;20232;-73
2022/09/14 10:51:34;;;;;;;4.05;1.92;;;;;;;25.67;81.42;95313.91;5037458;28;20212;-74
2022/09/14 10:54:11;;;;;;;5.63;1.83;;;;;;;25.66;82.81;95315.00;5036341;28;20259;-73
2022/09/14 10:56:55;;;;;;;3.40;1.88;;;;;;;25.66;80.28;95315.00;5036951;28;20204;-73
2022/09/14 10:59:31;;;;;;;5.88;2.10;;;;;;;25.76;78.78;95301.41;5037351;28;20227;-74
2022/09/14 11:02:35;;;;;;;5.43;2.08;;;;;;;25.78;79.32;95305.41;5037169;28;20205;-74
2022/09/14 11:05:11;;;;;;;2.65;1.75;;;;;;;25.90;79.68;95294.97;5036885;28;20248;-74
2022/09/14 11:07:47;;;;;;;10.90;5.03;;;;;;;26.00;78.94;95286.69;5037560;28;20233;-73
2022/09/14 11:10:21;;;;;;;5.07;2.58;;;;;;;26.19;78.93;95296.34;5036869;28;20608;-73
2022/09/14 11:13:09;;;;;;;3.40;1.85;;;;;;;26.04;76.31;95293.09;5036943;28;20299;-74
2022/09/14 11:15:45;;;;;;;6.90;2.28;;;;;;;25.97;76.76;95282.69;5036792;28;20212;-73
2022/09/14 11:18:24;;;;;;;4.57;2.10;;;;;;;25.94;78.46;95287.88;5036784;28;20739;-74
2022/09/14 11:21:05;;;;;;;7.38;2.20;;;;;;;25.84;79.53;95291.53;5037060;28;20211;-77
2022/09/14 11:23:45;;;;;;;4.13;2.15;;;;;;;25.77;78.55;95289.53;5034764;28;20685;-74
2022/09/14 11:26:18;;;;;;;4.38;2.17;;;;;;;25.55;80.44;95286.59;5035784;28;20216;-73
2022/09/14 11:28:49;;;;;;;2.90;2.10;;;;;;;25.52;80.69;95281.75;5036979;28;20225;-73
2022/09/14 11:31:20;;;;;;;5.30;2.40;;;;;;;25.63;81.17;95281.31;5037712;28;20201;-73
2022/09/14 11:33:53;;;;;;;3.10;2.22;;;;;;;25.46;81.11;95275.63;5036992;28;20593;-74
2022/09/14 11:36:23;;;;;;;4.40;2.00;;;;;;;25.57;81.00;95276.28;5036068;28;20201;-74